LTBA/IST METAR and TAF weather

Enter ICAO airport designator
Station Type Date Time Source
LTBA METAR 2019/02/23 22:50 UTC NOAA

LTBA 232250Z 01015KT 2000 -SN BKN008 OVC015 01/M00 Q1031 NOSIG


Station Type Date Time Source
LTBA Decoded METAR 2019/02/23 22:50 UTC NOAA

Istanbul / Ataturk, Turkey (LTBA) 40-58N 028-49E 37M
Feb 23, 2019 - 05:50 PM EST / 2019.02.23 2250 UTC
Wind: from the N (010 degrees) at 17 MPH (15 KT):0
Visibility: 1 mile(s):0
Sky conditions: overcast
Weather: light snow
Temperature: 33 F (1 C)
Windchill: 23 F (-5 C):1
Dew Point: 32 F (0 C)
Relative Humidity: 93%
Pressure (altimeter): 30.45 in. Hg (1031 hPa)
ob: LTBA 232250Z 01015KT 2000 -SN BKN008 OVC015 01/M00 Q1031 NOSIG
cycle: 23

Station Type Date Time Source
LTBA TAF 2019/02/23 18:03 UTC NOAA

TAF LTBA 231640Z 2318/2424 03022G35KT 2500 -SN BKN010 BKN015 PROB40
TEMPO 2321/2401 1200 SN
BECMG 2405/2408 4000 -RASN SCT008 BKN020


Example: see airport list